Time;durP1;ratioP1;P1;durP2;ratioP2;P2;SDS_P1;SDS_P2;PMS_P1;PMS_P2;Temp;Humidity;BMP_temperature;BMP_pressure;BME280_temperature;BME280_humidity;BME280_pressure;Samples;Min_cycle;Max_cycle;Signal;HPM_P1;HPM_P2
2023/06/20 00:01:15;;;;;;;6.50;4.78;;;18.70;1.00;;;;;;5194108;28;20033;-63
2023/06/20 00:03:49;;;;;;;7.20;4.47;;;18.70;1.00;;;;;;5187687;28;20030;-60
2023/06/20 00:06:23;;;;;;;7.18;5.28;;;18.70;1.00;;;;;;5166748;28;20072;-61
2023/06/20 00:09:00;;;;;;;6.07;4.90;;;18.70;1.00;;;;;;5198072;28;20029;-61
2023/06/20 00:11:31;;;;;;;5.35;4.47;;;18.80;1.00;;;;;;5159421;28;20037;-62
2023/06/20 00:14:04;;;;;;;6.40;4.93;;;18.70;1.00;;;;;;5193986;28;20043;-62
2023/06/20 00:16:36;;;;;;;6.47;4.68;;;18.70;1.00;;;;;;5153088;28;20045;-62
2023/06/20 00:19:08;;;;;;;7.38;5.32;;;18.80;1.00;;;;;;5183723;28;20407;-61
2023/06/20 00:21:43;;;;;;;7.68;5.03;;;18.70;1.00;;;;;;5194735;28;20033;-62
2023/06/20 00:24:17;;;;;;;6.13;4.97;;;18.60;1.00;;;;;;5162737;28;20042;-61
2023/06/20 00:26:55;;;;;;;7.32;5.45;;;18.60;1.00;;;;;;5196766;28;20037;-61
2023/06/20 00:29:29;;;;;;;6.72;5.57;;;18.60;1.00;;;;;;5164038;28;20495;-60
2023/06/20 00:32:00;;;;;;;7.15;5.10;;;18.60;1.00;;;;;;5197064;28;20541;-61
2023/06/20 00:34:34;;;;;;;7.82;5.15;;;18.60;1.00;;;;;;5197761;28;20044;-64
2023/06/20 00:37:07;;;;;;;8.63;4.88;;;18.40;1.00;;;;;;5179483;28;20043;-63
2023/06/20 00:39:43;;;;;;;8.13;5.25;;;18.50;1.00;;;;;;5179841;28;20053;-61
2023/06/20 00:42:19;;;;;;;6.93;5.35;;;18.40;1.00;;;;;;5181295;28;20037;-60
2023/06/20 00:44:53;;;;;;;6.65;5.13;;;18.40;1.00;;;;;;5180383;28;20041;-62
2023/06/20 00:47:30;;;;;;;9.05;5.88;;;18.30;1.00;;;;;;5177096;28;20037;-60
2023/06/20 00:50:01;;;;;;;9.48;4.97;;;18.40;1.00;;;;;;5179753;28;20072;-61
2023/06/20 00:52:35;;;;;;;7.30;5.28;;;18.30;1.00;;;;;;5180879;28;20086;-60
2023/06/20 00:55:07;;;;;;;5.93;5.28;;;18.30;1.00;;;;;;5199785;28;20047;-61
2023/06/20 00:57:43;;;;;;;6.25;5.30;;;18.30;1.00;;;;;;5199185;28;20035;-61
2023/06/20 01:03:14;;;;;;;8.15;4.75;;;18.20;1.00;;;;;;5220467;28;20327;-85
2023/06/20 01:05:59;;;;;;;8.02;5.35;;;18.10;1.00;;;;;;5201856;28;20045;-86
2023/06/20 01:09:09;;;;;;;8.52;5.63;;;18.10;1.00;;;;;;5187360;28;20032;-86
2023/06/20 01:12:08;;;;;;;9.43;6.40;;;18.10;1.00;;;;;;5191173;28;20031;-86
2023/06/20 01:15:03;;;;;;;7.80;5.35;;;18.10;1.00;;;;;;5203429;28;20176;-85
2023/06/20 01:17:58;;;;;;;9.57;5.60;;;18.10;1.00;;;;;;5219724;28;20045;-87
2023/06/20 01:20:43;;;;;;;8.70;5.93;;;18.00;1.00;;;;;;5203514;28;20040;-85
2023/06/20 01:23:29;;;;;;;8.00;5.88;;;18.00;1.00;;;;;;5203468;28;20030;-86
2023/06/20 01:26:18;;;;;;;6.57;5.20;;;18.10;1.00;;;;;;5202936;28;20040;-84
2023/06/20 01:29:06;;;;;;;6.70;5.38;;;18.10;1.00;;;;;;5202901;28;20043;-84
2023/06/20 01:31:48;;;;;;;8.52;6.18;;;18.10;1.00;;;;;;5203237;28;20032;-84
2023/06/20 01:34:45;;;;;;;7.75;5.20;;;18.00;1.00;;;;;;5203275;28;20033;-84
2023/06/20 01:37:26;;;;;;;7.30;5.75;;;18.00;1.00;;;;;;5162094;28;20036;-86
2023/06/20 01:40:00;;;;;;;8.63;5.60;;;17.90;1.00;;;;;;5162143;28;20033;-86
2023/06/20 01:42:33;;;;;;;8.05;5.35;;;17.90;1.00;;;;;;5162012;28;20220;-84
2023/06/20 01:45:09;;;;;;;7.95;5.03;;;17.80;1.00;;;;;;5162081;28;20026;-86
2023/06/20 01:47:41;;;;;;;7.28;5.47;;;17.80;1.00;;;;;;5164288;28;20324;-86
2023/06/20 01:53:43;;;;;;;9.20;6.25;;;17.90;1.00;;;;;;5164183;28;20026;-85
2023/06/20 01:56:16;;;;;;;8.73;5.70;;;17.80;1.00;;;;;;5163857;28;20034;-85
2023/06/20 01:58:49;;;;;;;10.25;5.95;;;17.80;1.00;;;;;;5161930;28;20046;-86
2023/06/20 02:01:22;;;;;;;8.23;5.85;;;17.80;1.00;;;;;;5160949;28;20045;-87
2023/06/20 02:04:17;;;;;;;9.50;6.20;;;17.70;1.00;;;;;;5185120;28;20036;-85
2023/06/20 02:07:10;;;;;;;10.23;5.78;;;17.70;1.00;;;;;;5173514;28;20020;-86
2023/06/20 02:09:45;;;;;;;8.25;5.30;;;17.80;1.00;;;;;;5202749;28;20037;-86
2023/06/20 02:12:18;;;;;;;7.82;5.65;;;17.80;1.00;;;;;;5202277;28;20325;-86
2023/06/20 02:14:54;;;;;;;7.75;5.78;;;17.80;1.00;;;;;;5202806;28;20037;-86
2023/06/20 02:17:27;;;;;;;6.65;5.18;;;17.80;1.00;;;;;;5202460;28;20029;-86
2023/06/20 02:19:59;;;;;;;10.07;6.30;;;17.70;1.00;;;;;;5201652;28;20037;-86
2023/06/20 02:22:36;;;;;;;9.98;7.25;;;17.70;1.00;;;;;;5202273;28;20027;-86
2023/06/20 02:25:12;;;;;;;8.63;6.03;;;17.70;1.00;;;;;;5203247;28;20025;-87
2023/06/20 02:27:47;;;;;;;7.25;5.80;;;17.70;1.00;;;;;;5202487;28;20029;-85
2023/06/20 02:30:25;;;;;;;8.95;5.97;;;17.80;1.00;;;;;;5202238;28;20037;-86
2023/06/20 02:32:59;;;;;;;8.93;6.20;;;17.70;1.00;;;;;;5202106;28;20331;-86
2023/06/20 02:35:33;;;;;;;7.90;5.95;;;17.70;1.00;;;;;;5202784;28;20037;-85
2023/06/20 02:38:08;;;;;;;9.55;5.93;;;17.70;1.00;;;;;;5201066;28;20029;-85
2023/06/20 02:40:40;;;;;;;10.52;6.15;;;17.70;1.00;;;;;;5201862;28;20033;-86
2023/06/20 02:43:13;;;;;;;9.48;5.75;;;17.70;1.00;;;;;;5200810;28;20029;-85
2023/06/20 02:46:09;;;;;;;7.07;6.13;;;17.80;1.00;;;;;;5201974;28;20222;-86
2023/06/20 02:48:48;;;;;;;10.05;6.43;;;17.80;1.00;;;;;;5201792;28;20029;-86
2023/06/20 02:51:36;;;;;;;7.50;5.70;;;17.80;1.00;;;;;;5201563;28;20029;-85
2023/06/20 02:54:17;;;;;;;28.35;5.95;;;17.80;1.00;;;;;;5201363;28;20303;-85
2023/06/20 02:56:56;;;;;;;8.90;6.03;;;17.80;1.00;;;;;;5201200;28;20048;-85
2023/06/20 02:59:31;;;;;;;9.27;6.50;;;17.80;1.00;;;;;;5203569;28;20069;-85
2023/06/20 03:02:06;;;;;;;9.23;6.78;;;17.80;1.00;;;;;;5200968;28;20037;-84
2023/06/20 03:04:44;;;;;;;9.50;6.25;;;17.90;1.00;;;;;;5190234;28;20036;-86
2023/06/20 03:07:19;;;;;;;9.10;5.82;;;17.90;1.00;;;;;;5184337;28;20047;-84
2023/06/20 03:09:54;;;;;;;8.10;5.75;;;18.00;1.00;;;;;;5200994;28;20223;-83
2023/06/20 03:12:25;;;;;;;12.15;6.38;;;18.00;1.00;;;;;;5200879;28;20033;-85
2023/06/20 03:14:56;;;;;;;9.68;5.85;;;18.00;1.00;;;;;;5201168;28;20039;-86
2023/06/20 03:17:28;;;;;;;7.45;5.95;;;18.00;1.00;;;;;;5200457;28;20051;-85
2023/06/20 03:20:01;;;;;;;8.23;5.88;;;18.10;1.00;;;;;;5200558;28;20039;-86
2023/06/20 03:22:34;;;;;;;8.00;5.93;;;18.10;1.00;;;;;;5200477;28;20029;-84
2023/06/20 03:25:08;;;;;;;8.52;5.97;;;18.10;1.00;;;;;;5201004;28;20207;-85
2023/06/20 03:27:39;;;;;;;9.38;6.63;;;18.10;1.00;;;;;;5200958;28;20039;-85
2023/06/20 03:30:17;;;;;;;9.05;6.65;;;18.10;1.00;;;;;;5199942;28;20025;-85
2023/06/20 03:32:50;;;;;;;8.48;5.97;;;18.20;1.00;;;;;;5201319;28;20029;-85
2023/06/20 03:35:21;;;;;;;7.65;5.82;;;18.30;1.00;;;;;;5202793;28;20033;-87
2023/06/20 03:37:56;;;;;;;9.07;6.90;;;18.40;1.00;;;;;;5188797;28;20038;-87
2023/06/20 03:41:14;;;;;;;14.00;6.90;;;18.50;1.00;;;;;;5173123;28;20039;-87
2023/06/20 03:43:55;;;;;;;9.85;6.20;;;18.70;1.00;;;;;;5127721;29;20031;-87
2023/06/20 03:50:28;;;;;;;9.02;6.47;;;19.20;1.00;;;;;;5146506;29;20027;-88
2023/06/20 03:53:07;;;;;;;8.20;6.32;;;19.40;1.00;;;;;;5128939;29;20031;-88
2023/06/20 03:55:48;;;;;;;9.32;6.60;;;19.50;1.00;;;;;;5114374;29;20152;-87
2023/06/20 03:58:24;;;;;;;10.07;6.88;;;19.70;1.00;;;;;;5112424;28;20039;-87
2023/06/20 04:01:06;;;;;;;10.18;6.63;;;19.70;1.00;;;;;;5108669;28;20075;-87
2023/06/20 04:03:41;;;;;;;9.77;6.57;;;19.80;1.00;;;;;;5142263;22;20055;-71
2023/06/20 04:06:15;;;;;;;9.98;6.40;;;19.90;1.00;;;;;;5206561;28;20049;-70
2023/06/20 04:08:47;;;;;;;11.10;6.95;;;19.80;1.00;;;;;;5197728;28;20564;-70
2023/06/20 04:11:19;;;;;;;9.32;6.63;;;19.70;1.00;;;;;;5191948;28;20029;-70
2023/06/20 04:13:50;;;;;;;9.07;6.63;;;19.90;1.00;;;;;;5213964;28;20041;-71
2023/06/20 04:16:21;;;;;;;9.63;6.07;;;20.00;1.00;;;;;;5206137;28;20043;-70
2023/06/20 04:18:53;;;;;;;10.40;7.28;;;20.20;1.00;;;;;;5196253;28;20043;-70
2023/06/20 04:21:26;;;;;;;9.75;5.97;;;20.40;1.00;;;;;;5209609;28;20069;-70
2023/06/20 04:23:58;;;;;;;10.15;7.10;;;20.50;1.00;;;;;;5217913;28;20333;-70
2023/06/20 04:26:32;;;;;;;9.55;5.97;;;20.60;1.00;;;;;;5209987;28;20671;-71
2023/06/20 04:29:06;;;;;;;7.82;6.43;;;20.70;1.00;;;;;;5219688;28;20062;-71
2023/06/20 04:31:41;;;;;;;9.77;7.13;;;20.70;1.00;;;;;;5202829;28;20039;-70
2023/06/20 04:34:13;;;;;;;11.73;7.50;;;20.60;1.00;;;;;;5205234;28;20029;-71
2023/06/20 04:36:50;;;;;;;10.88;6.95;;;20.60;1.00;;;;;;5206465;28;20035;-70
2023/06/20 04:39:23;;;;;;;9.88;6.35;;;20.70;1.00;;;;;;5205620;28;20032;-72
2023/06/20 04:41:57;;;;;;;10.05;6.57;;;21.10;1.00;;;;;;5222946;28;20043;-70
2023/06/20 04:44:29;;;;;;;9.50;6.50;;;21.60;1.00;;;;;;5194652;28;20396;-71
2023/06/20 04:47:02;;;;;;;10.18;6.45;;;22.00;1.00;;;;;;5198631;28;20033;-71
2023/06/20 04:49:33;;;;;;;12.97;7.73;;;22.40;1.00;;;;;;5217827;28;20426;-71
2023/06/20 04:52:06;;;;;;;9.95;6.80;;;22.30;1.00;;;;;;5213364;28;20599;-72
2023/06/20 04:54:40;;;;;;;9.18;7.00;;;22.40;1.00;;;;;;5199461;28;20062;-70
2023/06/20 04:57:14;;;;;;;10.98;6.55;;;22.90;1.00;;;;;;5218320;28;20039;-71
2023/06/20 04:59:49;;;;;;;9.43;6.38;;;23.40;1.00;;;;;;5230003;28;20060;-70
2023/06/20 05:02:21;;;;;;;12.60;6.57;;;23.90;1.00;;;;;;5220426;28;20052;-72
2023/06/20 05:04:52;;;;;;;8.48;6.78;;;24.30;1.00;;;;;;5181787;28;20056;-70
2023/06/20 05:07:24;;;;;;;8.60;6.28;;;24.50;99.90;;;;;;5176130;28;20052;-72
2023/06/20 05:09:55;;;;;;;10.93;7.10;;;24.80;99.90;;;;;;5201229;28;20033;-71
2023/06/20 05:12:32;;;;;;;8.23;5.85;;;24.90;99.90;;;;;;5200802;28;20516;-71
2023/06/20 05:15:04;;;;;;;9.93;6.80;;;24.90;99.90;;;;;;5201153;28;20022;-72
2023/06/20 05:17:37;;;;;;;8.77;6.63;;;25.10;99.90;;;;;;5162516;28;20052;-71
2023/06/20 05:20:11;;;;;;;8.07;6.40;;;25.20;99.90;;;;;;5181144;28;20041;-72
2023/06/20 05:22:45;;;;;;;8.88;6.57;;;25.30;99.90;;;;;;5180442;28;20195;-72
2023/06/20 05:25:20;;;;;;;9.05;6.40;;;25.50;99.90;;;;;;5170216;28;20516;-71
2023/06/20 05:27:51;;;;;;;8.07;5.85;;;25.70;99.90;;;;;;5164527;28;20511;-71
2023/06/20 05:30:23;;;;;;;15.90;6.63;;;25.70;99.90;;;;;;5160562;28;20040;-71
2023/06/20 05:32:54;;;;;;;7.93;5.55;;;26.00;99.90;;;;;;5187067;28;20037;-72
2023/06/20 05:35:28;;;;;;;8.00;5.80;;;26.10;99.90;;;;;;5184192;28;20037;-71
2023/06/20 05:38:03;;;;;;;10.95;6.03;;;26.20;99.90;;;;;;5198387;28;20021;-72
2023/06/20 05:40:35;;;;;;;9.52;5.85;;;26.30;99.90;;;;;;5199169;28;20053;-72
2023/06/20 05:43:06;;;;;;;8.60;5.68;;;26.30;99.90;;;;;;5201802;28;20036;-71
2023/06/20 05:45:39;;;;;;;7.40;4.90;;;26.60;99.90;;;;;;5211739;28;20346;-71
2023/06/20 05:48:10;;;;;;;7.35;5.45;;;26.80;99.90;;;;;;5199015;28;20077;-71
2023/06/20 05:50:44;;;;;;;6.93;5.43;;;27.00;99.90;;;;;;5216194;28;20029;-71
2023/06/20 05:53:15;;;;;;;7.75;6.45;;;27.20;80.40;;;;;;5183267;28;20046;-71
2023/06/20 05:55:50;;;;;;;7.10;6.07;;;27.40;99.90;;;;;;5198228;28;20032;-71
2023/06/20 05:58:22;;;;;;;7.22;5.80;;;27.50;41.60;;;;;;5198560;28;20031;-72
2023/06/20 06:00:55;;;;;;;7.55;5.78;;;27.60;99.90;;;;;;5176022;28;20033;-73
2023/06/20 06:03:34;;;;;;;7.00;5.65;;;27.60;1.00;;;;;;5195106;28;20516;-71
2023/06/20 06:06:09;;;;;;;10.77;6.28;;;27.60;3.20;;;;;;5156809;28;20628;-71
2023/06/20 06:08:41;;;;;;;7.53;5.63;;;27.60;1.00;;;;;;5181333;28;20025;-71
2023/06/20 06:11:12;;;;;;;7.60;5.43;;;27.50;1.00;;;;;;5180727;28;20475;-71
2023/06/20 06:13:44;;;;;;;7.68;5.95;;;27.60;1.00;;;;;;5163808;28;20034;-71
2023/06/20 06:16:18;;;;;;;8.32;6.28;;;28.00;1.00;;;;;;5190804;28;20037;-71
2023/06/20 06:18:50;;;;;;;7.35;5.35;;;28.30;1.00;;;;;;5178771;28;20029;-71
2023/06/20 06:21:21;;;;;;;9.45;6.68;;;28.30;1.00;;;;;;5182239;28;20041;-71
2023/06/20 06:23:53;;;;;;;9.45;6.05;;;28.30;1.00;;;;;;5189651;28;20026;-72
2023/06/20 06:26:27;;;;;;;8.40;5.38;;;28.50;1.00;;;;;;5193751;28;20042;-72
2023/06/20 06:29:00;;;;;;;8.02;5.80;;;28.50;1.00;;;;;;5200899;28;20037;-72
2023/06/20 06:31:38;;;;;;;8.35;5.40;;;28.80;1.00;;;;;;5179306;28;20037;-71
2023/06/20 06:34:10;;;;;;;6.22;5.15;;;29.00;1.00;;;;;;5198270;28;20041;-70
2023/06/20 06:36:43;;;;;;;9.80;6.30;;;29.00;1.00;;;;;;5195340;28;20037;-71
2023/06/20 06:39:19;;;;;;;12.07;6.40;;;28.90;1.00;;;;;;5215912;28;20036;-71
2023/06/20 06:41:52;;;;;;;7.45;5.80;;;28.90;1.00;;;;;;5194078;28;20360;-71
2023/06/20 06:44:24;;;;;;;8.68;5.95;;;29.10;1.00;;;;;;5179238;28;20057;-71
2023/06/20 06:46:58;;;;;;;8.27;5.43;;;29.40;1.00;;;;;;5198073;28;20037;-71
2023/06/20 06:49:31;;;;;;;6.80;5.68;;;29.70;1.00;;;;;;5176481;28;20033;-70
2023/06/20 06:52:04;;;;;;;6.70;5.18;;;29.80;1.00;;;;;;5196792;28;20041;-71
2023/06/20 06:54:35;;;;;;;7.43;5.32;;;30.20;1.00;;;;;;5195344;28;20111;-71
2023/06/20 06:57:09;;;;;;;6.65;5.53;;;30.20;1.00;;;;;;5184160;28;20025;-71
2023/06/20 06:59:40;;;;;;;7.25;5.35;;;30.20;1.00;;;;;;5214543;28;20025;-71
2023/06/20 07:02:15;;;;;;;9.02;6.05;;;30.50;1.00;;;;;;5186173;28;20041;-71
2023/06/20 07:04:46;;;;;;;7.63;5.45;;;30.10;1.00;;;;;;5176065;28;20357;-72
2023/06/20 07:07:19;;;;;;;7.13;5.28;;;30.20;1.00;;;;;;5202069;28;20326;-70
2023/06/20 07:09:51;;;;;;;6.47;4.93;;;30.30;1.00;;;;;;5183287;28;20041;-71
2023/06/20 07:12:22;;;;;;;7.15;5.78;;;30.30;1.00;;;;;;5199300;28;20234;-71
2023/06/20 07:14:56;;;;;;;7.03;5.38;;;30.40;1.00;;;;;;5186635;28;20033;-72
2023/06/20 07:17:28;;;;;;;;;;;29.80;1.00;;;;;;5179456;28;20037;-71
2023/06/20 07:19:59;;;;;;;6.55;5.10;;;30.00;1.00;;;;;;5182491;28;19927;-70
2023/06/20 07:22:30;;;;;;;7.47;5.57;;;30.30;1.00;;;;;;5198763;28;20033;-70
2023/06/20 07:25:01;;;;;;;7.82;5.05;;;30.60;1.00;;;;;;5198238;28;20037;-71
2023/06/20 07:27:35;;;;;;;8.98;5.47;;;30.50;1.00;;;;;;5199630;28;20386;-72
2023/06/20 07:30:07;;;;;;;7.07;5.03;;;30.80;1.00;;;;;;5181822;28;20028;-72
2023/06/20 07:32:38;;;;;;;9.07;5.57;;;31.00;1.00;;;;;;5198752;28;20033;-70
2023/06/20 07:35:10;;;;;;;5.85;4.72;;;31.00;1.00;;;;;;5183596;28;20037;-72
2023/06/20 07:37:41;;;;;;;8.23;5.88;;;31.30;1.00;;;;;;5197722;28;20026;-73
2023/06/20 07:40:12;;;;;;;6.88;5.45;;;31.60;1.00;;;;;;5194980;28;20246;-70
2023/06/20 07:42:48;;;;;;;5.65;4.18;;;31.10;1.00;;;;;;5200615;28;20029;-70
2023/06/20 07:45:19;;;;;;;8.32;5.22;;;30.90;99.90;;;;;;5178101;28;20042;-70
2023/06/20 07:47:50;;;;;;;5.88;4.63;;;30.80;99.90;;;;;;5196743;28;20052;-72
2023/06/20 07:50:24;;;;;;;6.07;4.95;;;31.10;99.90;;;;;;5197391;28;20227;-70
2023/06/20 07:52:56;;;;;;;8.43;5.50;;;31.50;99.90;;;;;;5198552;28;20432;-70
2023/06/20 07:55:28;;;;;;;5.93;4.70;;;31.70;99.90;;;;;;5194362;28;20036;-71
2023/06/20 07:57:59;;;;;;;7.90;4.53;;;31.90;99.90;;;;;;5176310;28;20034;-71
2023/06/20 08:00:33;;;;;;;6.57;4.60;;;31.80;99.90;;;;;;5158099;28;20331;-70
2023/06/20 08:03:04;;;;;;;8.27;4.38;;;31.70;99.90;;;;;;5176324;28;20039;-73
2023/06/20 08:05:35;;;;;;;4.88;4.30;;;31.70;99.90;;;;;;5175035;28;20045;-72
2023/06/20 08:08:09;;;;;;;5.93;5.03;;;31.50;1.00;;;;;;5196424;28;20330;-72
2023/06/20 08:10:42;;;;;;;6.07;4.68;;;31.80;99.90;;;;;;5181215;28;20413;-71
2023/06/20 08:13:14;;;;;;;5.90;4.40;;;32.00;99.90;;;;;;5198365;28;20039;-71
2023/06/20 08:15:45;;;;;;;5.32;4.60;;;32.20;99.90;;;;;;5195761;28;20043;-70
2023/06/20 08:18:19;;;;;;;5.70;4.60;;;32.30;99.90;;;;;;5198155;28;20105;-70
2023/06/20 08:20:50;;;;;;;5.35;4.15;;;32.30;99.90;;;;;;5197563;28;20041;-72
2023/06/20 08:23:25;;;;;;;4.93;3.75;;;32.30;99.90;;;;;;5195122;28;20038;-73
2023/06/20 08:25:57;;;;;;;5.38;4.47;;;32.20;99.90;;;;;;5175859;28;20045;-70
2023/06/20 08:28:28;;;;;;;5.68;4.80;;;32.40;99.90;;;;;;5180841;28;20033;-73
2023/06/20 08:30:59;;;;;;;5.82;4.10;;;32.40;99.90;;;;;;5194677;28;20623;-72
2023/06/20 08:33:31;;;;;;;4.20;3.80;;;32.30;99.90;;;;;;5181063;28;20044;-71
2023/06/20 08:36:05;;;;;;;5.25;3.92;;;32.20;1.00;;;;;;5180970;28;20037;-71
2023/06/20 08:38:38;;;;;;;3.85;3.55;;;31.70;1.00;;;;;;5197758;28;20041;-71
2023/06/20 08:41:10;;;;;;;5.57;4.18;;;32.00;1.00;;;;;;5182249;28;20044;-70
2023/06/20 08:43:43;;;;;;;5.78;4.00;;;32.40;1.00;;;;;;5177929;28;20038;-71
2023/06/20 08:46:14;;;;;;;4.47;3.67;;;32.50;1.00;;;;;;5174585;28;20038;-71
2023/06/20 08:48:51;;;;;;;6.90;3.83;;;32.10;1.00;;;;;;5177244;28;20048;-72
2023/06/20 08:51:27;;;;;;;4.70;4.07;;;32.00;99.90;;;;;;5187358;28;20041;-71
2023/06/20 08:54:01;;;;;;;5.22;4.15;;;32.20;99.90;;;;;;5199337;28;20252;-71
2023/06/20 08:56:33;;;;;;;7.13;4.10;;;32.50;99.90;;;;;;5176719;28;20030;-70
2023/06/20 08:59:10;;;;;;;4.82;3.90;;;32.00;99.90;;;;;;5195631;28;20033;-70
2023/06/20 09:01:44;;;;;;;4.72;3.95;;;32.20;99.90;;;;;;5174055;28;20045;-72
2023/06/20 09:04:18;;;;;;;4.45;4.00;;;32.50;99.90;;;;;;5161957;28;20049;-71
2023/06/20 09:07:01;;;;;;;9.13;4.63;;;32.40;18.30;;;;;;5185938;28;20029;-70
2023/06/20 09:09:39;;;;;;;4.70;4.20;;;32.40;99.90;;;;;;5186173;28;20043;-72
2023/06/20 09:12:12;;;;;;;4.95;3.75;;;32.50;99.90;;;;;;5195756;28;20468;-71
2023/06/20 09:14:46;;;;;;;4.93;4.40;;;32.60;71.40;;;;;;5193332;28;20413;-71
2023/06/20 09:17:19;;;;;;;4.57;4.18;;;33.10;99.90;;;;;;5178534;28;20262;-73
2023/06/20 09:19:53;;;;;;;4.67;3.90;;;33.10;99.90;;;;;;5197796;28;20040;-71
2023/06/20 09:22:25;;;;;;;4.43;3.63;;;33.10;1.00;;;;;;5164424;28;20044;-71
2023/06/20 09:24:56;;;;;;;4.63;3.80;;;32.90;1.00;;;;;;5177604;28;20037;-71
2023/06/20 09:27:34;;;;;;;5.70;4.22;;;33.00;1.00;;;;;;5202241;28;20373;-71
2023/06/20 09:30:06;;;;;;;5.65;4.43;;;33.60;1.00;;;;;;5201402;28;20031;-72
2023/06/20 09:32:42;;;;;;;4.88;4.38;;;34.00;1.00;;;;;;5183157;28;20048;-71
2023/06/20 09:35:17;;;;;;;4.75;3.83;;;33.80;1.00;;;;;;5200902;28;20049;-72
2023/06/20 09:37:51;;;;;;;5.65;4.38;;;33.90;1.00;;;;;;5218676;28;20532;-70
2023/06/20 09:40:30;;;;;;;4.15;3.65;;;33.80;1.00;;;;;;5201871;28;20033;-70
2023/06/20 09:43:05;;;;;;;4.88;4.38;;;34.00;1.00;;;;;;5184827;28;20056;-70
2023/06/20 09:45:36;;;;;;;5.60;4.10;;;33.40;1.00;;;;;;5210477;28;20025;-73
2023/06/20 09:48:12;;;;;;;5.07;4.55;;;32.60;1.00;;;;;;5203175;28;20258;-71
2023/06/20 09:50:45;;;;;;;5.38;3.95;;;33.20;1.00;;;;;;5216801;28;20112;-70
2023/06/20 09:53:25;;;;;;;5.33;4.43;;;33.60;1.00;;;;;;5185895;28;20046;-71
2023/06/20 09:55:58;;;;;;;6.40;3.78;;;34.60;1.00;;;;;;5201829;28;20510;-71
2023/06/20 09:58:36;;;;;;;5.47;4.63;;;34.50;1.00;;;;;;5181450;28;20669;-71
2023/06/20 10:01:14;;;;;;;8.20;4.50;;;34.60;1.00;;;;;;5184518;28;20038;-72
2023/06/20 10:03:48;;;;;;;4.60;4.20;;;34.30;1.00;;;;;;5200257;28;20033;-72
2023/06/20 10:06:23;;;;;;;8.48;4.28;;;34.10;1.00;;;;;;5177240;28;20044;-71
2023/06/20 10:09:03;;;;;;;4.90;4.40;;;33.60;1.00;;;;;;5198107;28;20037;-73
2023/06/20 10:11:36;;;;;;;5.28;4.25;;;34.10;1.00;;;;;;5195322;28;20029;-73
2023/06/20 10:14:12;;;;;;;7.40;4.47;;;35.20;1.00;;;;;;5185104;28;20036;-71
2023/06/20 10:16:51;;;;;;;5.38;4.80;;;35.80;1.00;;;;;;5198544;28;20698;-71
2023/06/20 10:19:24;;;;;;;9.90;4.28;;;36.10;1.00;;;;;;5200506;28;20075;-72
2023/06/20 10:22:03;;;;;;;4.70;4.20;;;36.70;1.00;;;;;;5201359;28;20055;-72
2023/06/20 10:24:39;;;;;;;4.35;3.60;;;37.10;1.00;;;;;;5182298;28;20035;-71
2023/06/20 10:27:23;;;;;;;4.10;3.70;;;37.20;1.00;;;;;;5202030;28;20041;-72
2023/06/20 10:30:00;;;;;;;4.72;3.30;;;37.50;1.00;;;;;;5200466;28;20033;-72
2023/06/20 10:32:37;;;;;;;4.60;3.83;;;38.70;1.00;;;;;;5199413;28;20329;-71
2023/06/20 10:35:16;;;;;;;4.65;4.05;;;38.70;1.00;;;;;;5182489;28;20061;-71
2023/06/20 10:37:48;;;;;;;5.32;4.22;;;38.60;1.00;;;;;;5217140;28;20034;-72
2023/06/20 10:40:33;;;;;;;4.97;4.35;;;38.40;1.00;;;;;;5204577;28;20310;-72
2023/06/20 10:43:09;;;;;;;4.80;3.95;;;37.30;99.90;;;;;;5219629;28;20435;-71
2023/06/20 10:45:52;;;;;;;4.75;4.22;;;37.50;99.90;;;;;;5189760;28;20039;-71
2023/06/20 10:48:26;;;;;;;5.55;4.45;;;37.50;99.90;;;;;;5207782;28;20029;-73
2023/06/20 10:51:01;;;;;;;6.05;4.15;;;36.50;99.90;;;;;;5191083;28;20212;-71
2023/06/20 10:53:43;;;;;;;5.03;4.07;;;36.60;99.90;;;;;;5190044;28;20025;-70
2023/06/20 10:56:28;;;;;;;4.47;3.58;;;37.00;99.90;;;;;;5216254;28;20033;-72
2023/06/20 10:59:12;;;;;;;5.85;4.40;;;37.80;99.90;;;;;;5198343;28;20043;-72
2023/06/20 11:01:43;;;;;;;5.45;4.20;;;38.30;1.00;;;;;;5189279;28;20041;-71
2023/06/20 11:04:18;;;;;;;5.20;4.30;;;38.50;99.90;;;;;;5193922;28;20048;-71
2023/06/20 11:06:53;;;;;;;4.88;4.38;;;38.70;99.90;;;;;;5157573;28;20045;-72
2023/06/20 11:09:24;;;;;;;5.82;5.00;;;38.00;99.90;;;;;;5173707;28;20044;-72
2023/06/20 11:11:55;;;;;;;4.70;4.30;;;38.40;99.90;;;;;;5189408;28;20044;-70
2023/06/20 11:14:27;;;;;;;5.43;4.20;;;39.00;99.90;;;;;;5191490;28;20039;-70
2023/06/20 11:17:01;;;;;;;5.88;4.70;;;39.70;99.90;;;;;;5204473;28;20772;-71
2023/06/20 11:19:33;;;;;;;4.65;4.22;;;40.30;99.90;;;;;;5190935;28;20021;-72
2023/06/20 11:22:05;;;;;;;5.13;4.22;;;41.10;99.90;;;;;;5192714;28;20043;-72
2023/06/20 11:24:36;;;;;;;5.72;3.97;;;41.00;99.90;;;;;;5196219;28;20052;-72
2023/06/20 11:27:17;;;;;;;5.18;3.95;;;41.00;99.90;;;;;;5177354;28;20037;-71
2023/06/20 11:29:49;;;;;;;4.50;4.10;;;40.60;99.90;;;;;;5195979;28;20161;-73
2023/06/20 11:32:23;;;;;;;5.40;4.18;;;40.50;1.00;;;;;;5177799;28;20053;-71
2023/06/20 11:35:03;;;;;;;5.60;3.80;;;41.00;1.00;;;;;;5165744;28;20542;-73
2023/06/20 11:37:40;;;;;;;5.45;3.95;;;40.90;1.00;;;;;;5198403;28;20525;-72
2023/06/20 11:40:12;;;;;;;4.65;3.80;;;41.20;1.00;;;;;;5215416;28;20525;-73
2023/06/20 11:42:46;;;;;;;3.95;3.65;;;41.80;1.00;;;;;;5179189;28;20044;-71
2023/06/20 11:45:17;;;;;;;6.75;5.15;;;41.10;1.00;;;;;;5160093;28;20041;-71
2023/06/20 11:48:07;;;;;;;5.93;4.05;;;40.70;1.00;;;;;;5180925;28;20018;-72
2023/06/20 11:50:42;;;;;;;5.07;4.00;;;40.00;1.00;;;;;;5193090;28;20018;-72
2023/06/20 11:53:25;;;;;;;4.78;4.30;;;39.50;1.00;;;;;;5182882;28;20037;-72
2023/06/20 11:56:02;;;;;;;4.15;3.72;;;40.00;1.00;;;;;;5198967;28;20588;-71
2023/06/20 11:58:44;;;;;;;4.35;3.88;;;40.70;1.00;;;;;;5207113;28;20044;-72
2023/06/20 12:01:20;;;;;;;4.85;4.38;;;42.00;1.00;;;;;;5178214;28;20041;-71
2023/06/20 12:04:10;;;;;;;5.13;3.88;;;41.20;1.00;;;;;;5198491;28;20091;-73
2023/06/20 12:06:48;;;;;;;4.35;3.90;;;41.20;23.40;;;;;;5186802;28;20323;-71
2023/06/20 12:09:27;;;;;;;4.95;4.45;;;42.60;99.90;;;;;;5199959;28;20093;-71
2023/06/20 12:12:00;;;;;;;4.93;4.03;;;43.30;1.00;;;;;;5199796;28;20037;-72
2023/06/20 12:14:31;;;;;;;4.83;4.40;;;42.10;1.00;;;;;;5204792;28;20030;-73
2023/06/20 12:17:08;;;;;;;4.45;4.00;;;40.40;1.00;;;;;;5174980;28;20267;-72
2023/06/20 12:19:52;;;;;;;4.90;4.30;;;41.30;1.00;;;;;;5174118;28;20132;-72
2023/06/20 12:22:25;;;;;;;7.78;4.60;;;41.60;1.00;;;;;;5186997;28;20039;-72
2023/06/20 12:24:56;;;;;;;5.50;4.32;;;41.50;1.00;;;;;;5185714;28;20048;-73
2023/06/20 12:27:28;;;;;;;4.55;4.15;;;40.80;1.00;;;;;;5167967;28;20044;-72
2023/06/20 12:29:59;;;;;;;4.63;4.18;;;41.90;50.20;;;;;;5185296;28;20034;-73
2023/06/20 12:32:31;;;;;;;4.00;3.65;;;42.60;1.00;;;;;;5185097;28;20045;-73
2023/06/20 12:35:03;;;;;;;4.93;4.35;;;43.20;1.00;;;;;;5183194;28;20064;-72
2023/06/20 12:37:34;;;;;;;8.35;4.63;;;41.90;1.00;;;;;;5181824;28;20108;-72
2023/06/20 12:40:07;;;;;;;6.05;4.40;;;42.40;1.00;;;;;;5182359;28;20045;-74
2023/06/20 12:42:40;;;;;;;4.28;3.88;;;42.60;1.00;;;;;;5198102;28;20052;-73
2023/06/20 12:45:11;;;;;;;4.85;4.32;;;43.70;1.00;;;;;;5171123;28;20045;-72
2023/06/20 12:47:43;;;;;;;5.15;4.63;;;43.50;1.00;;;;;;5183398;28;20041;-71
2023/06/20 12:50:17;;;;;;;5.07;4.57;;;41.90;1.00;;;;;;5201448;28;20029;-70
2023/06/20 12:52:53;;;;;;;6.05;4.88;;;42.50;1.00;;;;;;5186242;28;20033;-71
2023/06/20 12:55:25;;;;;;;6.45;4.00;;;42.70;1.00;;;;;;5185310;28;20091;-71
2023/06/20 12:57:59;;;;;;;4.78;4.38;;;42.70;1.00;;;;;;5166439;28;20506;-71
2023/06/20 13:00:30;;;;;;;4.43;3.67;;;43.00;1.00;;;;;;5184760;28;20394;-73
2023/06/20 13:03:04;;;;;;;6.85;4.47;;;43.20;1.00;;;;;;5202250;28;20045;-70
2023/06/20 13:05:39;;;;;;;4.75;4.35;;;42.40;1.00;;;;;;5179690;28;20045;-71
2023/06/20 13:08:11;;;;;;;6.20;4.72;;;42.70;1.00;;;;;;5184901;28;20265;-72
2023/06/20 13:10:45;;;;;;;4.50;4.10;;;41.60;1.00;;;;;;5186112;28;20044;-72
2023/06/20 13:13:19;;;;;;;5.00;4.50;;;41.40;1.00;;;;;;5185869;28;20041;-72
2023/06/20 13:15:56;;;;;;;4.70;4.15;;;41.60;1.00;;;;;;5201309;28;20033;-71
2023/06/20 13:18:30;;;;;;;4.47;4.07;;;42.50;1.00;;;;;;5187098;28;20064;-71
2023/06/20 13:21:01;;;;;;;4.53;4.13;;;44.00;1.00;;;;;;5187869;28;20429;-73
2023/06/20 13:23:34;;;;;;;4.90;4.32;;;42.40;1.00;;;;;;5201190;28;20048;-70
2023/06/20 13:26:08;;;;;;;;;;;42.00;1.00;;;;;;5184622;28;20044;-72
2023/06/20 13:28:39;;;;;;;4.32;3.92;;;41.80;1.00;;;;;;5186550;28;20336;-72
2023/06/20 13:31:14;;;;;;;7.47;4.25;;;41.70;1.00;;;;;;5200331;28;20037;-73
2023/06/20 13:33:45;;;;;;;4.47;3.97;;;41.80;1.00;;;;;;5205178;28;20033;-71
2023/06/20 13:36:16;;;;;;;6.78;4.43;;;43.00;1.00;;;;;;5204485;28;20031;-74
2023/06/20 13:38:48;;;;;;;5.32;4.53;;;43.30;1.00;;;;;;5203095;28;20039;-71
2023/06/20 13:41:22;;;;;;;4.68;3.90;;;43.70;1.00;;;;;;5202763;28;20033;-71
2023/06/20 13:43:54;;;;;;;4.70;4.22;;;43.40;1.00;;;;;;5189715;28;20047;-73
2023/06/20 13:46:26;;;;;;;4.30;3.95;;;42.70;1.00;;;;;;5198442;28;20037;-73